Terminal Aerodrome Forecast
Issued by NWS

Home | Current Version | Previous Version | Text Only | Print | Product List | Glossary On
Versions: 1 2 3 4 5 6 7 8 9 10 11 12 13 14 15 16 17 18 19 20 21 22 23 24 25 26 27 28
000
FTUS45 KGJT 170527
TAFVEL
TAF
KVEL 170527Z 1706/1806 29008KT P6SM SCT110 BKN200
     FM171000 04008KT P6SM VCSH SCT070 BKN100
     FM171400 16006KT P6SM VCSH SCT060 BKN090
     FM171700 21013KT P6SM FEW080 SCT250
     FM180300 29009KT P6SM SCT250=

USA.gov is the U.S. government's official web portal to all federal, state and local government web resources and services.